sensor_id;sensor_type;location;lat;lon;timestamp;pressure;altitude;pressure_sealevel;temperature;humidity
62508;BME280;48556;51.972;4.624;2023-02-14T00:02:17;103459.94;;;9.00;68.58
62508;BME280;48556;51.972;4.624;2023-02-14T00:04:43;103466.38;;;8.86;68.89
62508;BME280;48556;51.972;4.624;2023-02-14T00:07:11;103468.25;;;8.88;68.93
62508;BME280;48556;51.972;4.624;2023-02-14T00:09:37;103473.31;;;8.84;68.98
62508;BME280;48556;51.972;4.624;2023-02-14T00:12:04;103464.38;;;8.79;68.77
62508;BME280;48556;51.972;4.624;2023-02-14T00:14:32;103460.56;;;8.70;68.72
62508;BME280;48556;51.972;4.624;2023-02-14T00:17:16;103459.84;;;8.75;68.63
62508;BME280;48556;51.972;4.624;2023-02-14T00:19:42;103460.72;;;8.74;68.16
62508;BME280;48556;51.972;4.624;2023-02-14T00:22:07;103455.94;;;8.63;68.52
62508;BME280;48556;51.972;4.624;2023-02-14T00:24:33;103446.41;;;8.65;68.38
62508;BME280;48556;51.972;4.624;2023-02-14T00:26:59;103452.66;;;8.69;67.89
62508;BME280;48556;51.972;4.624;2023-02-14T00:29:29;103446.50;;;8.68;67.50
62508;BME280;48556;51.972;4.624;2023-02-14T00:31:55;103439.38;;;8.64;67.45
62508;BME280;48556;51.972;4.624;2023-02-14T00:34:21;103443.13;;;8.71;67.13
62508;BME280;48556;51.972;4.624;2023-02-14T00:36:47;103440.81;;;8.56;67.80
62508;BME280;48556;51.972;4.624;2023-02-14T00:39:16;103434.94;;;8.41;67.86
62508;BME280;48556;51.972;4.624;2023-02-14T00:41:42;103434.56;;;8.31;68.54
62508;BME280;48556;51.972;4.624;2023-02-14T00:44:09;103431.63;;;8.45;67.76
62508;BME280;48556;51.972;4.624;2023-02-14T00:46:35;103429.53;;;8.36;68.24
62508;BME280;48556;51.972;4.624;2023-02-14T00:49:01;103435.72;;;8.38;69.38
62508;BME280;48556;51.972;4.624;2023-02-14T00:51:27;103434.22;;;8.22;70.96
62508;BME280;48556;51.972;4.624;2023-02-14T00:53:55;103423.31;;;8.34;71.39
62508;BME280;48556;51.972;4.624;2023-02-14T00:56:21;103435.06;;;8.44;71.00
62508;BME280;48556;51.972;4.624;2023-02-14T00:58:47;103427.13;;;8.42;71.38
62508;BME280;48556;51.972;4.624;2023-02-14T01:01:14;103422.34;;;8.53;71.17
62508;BME280;48556;51.972;4.624;2023-02-14T01:03:42;103416.38;;;8.34;71.49
62508;BME280;48556;51.972;4.624;2023-02-14T01:06:08;103416.91;;;8.48;70.61
62508;BME280;48556;51.972;4.624;2023-02-14T01:08:33;103422.03;;;8.45;70.15
62508;BME280;48556;51.972;4.624;2023-02-14T01:11:18;103421.94;;;8.44;69.91
62508;BME280;48556;51.972;4.624;2023-02-14T01:13:45;103415.75;;;8.42;69.49
62508;BME280;48556;51.972;4.624;2023-02-14T01:16:15;103415.97;;;8.46;68.85
62508;BME280;48556;51.972;4.624;2023-02-14T01:18:43;103416.22;;;8.31;68.89
62508;BME280;48556;51.972;4.624;2023-02-14T01:21:19;103414.69;;;8.36;69.09
62508;BME280;48556;51.972;4.624;2023-02-14T01:23:48;103413.47;;;8.28;69.11
62508;BME280;48556;51.972;4.624;2023-02-14T01:26:16;103412.56;;;8.26;68.79
62508;BME280;48556;51.972;4.624;2023-02-14T01:28:44;103418.50;;;8.22;68.83
62508;BME280;48556;51.972;4.624;2023-02-14T01:31:16;103405.41;;;8.22;68.86
62508;BME280;48556;51.972;4.624;2023-02-14T01:33:44;103405.63;;;8.06;68.42
62508;BME280;48556;51.972;4.624;2023-02-14T01:36:24;103417.91;;;8.07;68.25
62508;BME280;48556;51.972;4.624;2023-02-14T01:38:52;103417.91;;;8.07;68.45
62508;BME280;48556;51.972;4.624;2023-02-14T01:41:19;103414.84;;;7.96;67.73
62508;BME280;48556;51.972;4.624;2023-02-14T01:46:14;103409.53;;;7.94;67.94
62508;BME280;48556;51.972;4.624;2023-02-14T01:48:40;103406.28;;;8.00;68.07
62508;BME280;48556;51.972;4.624;2023-02-14T01:51:06;103397.88;;;7.86;69.03
62508;BME280;48556;51.972;4.624;2023-02-14T01:53:37;103415.41;;;8.10;68.51
62508;BME280;48556;51.972;4.624;2023-02-14T01:56:09;103406.44;;;8.04;68.63
62508;BME280;48556;51.972;4.624;2023-02-14T01:58:40;103409.03;;;7.82;70.03
62508;BME280;48556;51.972;4.624;2023-02-14T02:01:12;103413.31;;;7.80;69.30
62508;BME280;48556;51.972;4.624;2023-02-14T02:03:46;103412.53;;;7.82;69.16
62508;BME280;48556;51.972;4.624;2023-02-14T02:06:22;103408.78;;;7.76;68.77
62508;BME280;48556;51.972;4.624;2023-02-14T02:09:21;103414.41;;;7.85;68.81
62508;BME280;48556;51.972;4.624;2023-02-14T02:11:50;103409.75;;;7.78;68.69
62508;BME280;48556;51.972;4.624;2023-02-14T02:14:19;103411.28;;;7.73;68.59
62508;BME280;48556;51.972;4.624;2023-02-14T02:34:13;103405.00;;;7.48;68.16
62508;BME280;48556;51.972;4.624;2023-02-14T02:40:05;103410.13;;;7.45;68.62
62508;BME280;48556;51.972;4.624;2023-02-14T02:42:59;103399.53;;;7.42;68.30
62508;BME280;48556;51.972;4.624;2023-02-14T02:48:24;103396.91;;;7.42;68.60
62508;BME280;48556;51.972;4.624;2023-02-14T02:51:01;103392.38;;;7.38;68.96
62508;BME280;48556;51.972;4.624;2023-02-14T02:54:02;103392.31;;;7.15;69.32
62508;BME280;48556;51.972;4.624;2023-02-14T02:56:34;103397.22;;;7.28;69.11
62508;BME280;48556;51.972;4.624;2023-02-14T02:59:41;103391.84;;;7.25;69.29
62508;BME280;48556;51.972;4.624;2023-02-14T03:02:20;103390.59;;;7.36;69.09
62508;BME280;48556;51.972;4.624;2023-02-14T03:04:54;103384.41;;;7.34;69.60
62508;BME280;48556;51.972;4.624;2023-02-14T03:07:35;103383.53;;;7.34;70.23
62508;BME280;48556;51.972;4.624;2023-02-14T03:12:43;103377.06;;;7.47;70.23
62508;BME280;48556;51.972;4.624;2023-02-14T03:21:28;103381.22;;;7.42;71.00
62508;BME280;48556;51.972;4.624;2023-02-14T03:24:05;103382.53;;;7.53;71.74
62508;BME280;48556;51.972;4.624;2023-02-14T03:26:42;103382.19;;;7.44;72.55
62508;BME280;48556;51.972;4.624;2023-02-14T03:29:15;103378.06;;;7.50;72.75
62508;BME280;48556;51.972;4.624;2023-02-14T03:31:59;103383.16;;;7.68;71.57
62508;BME280;48556;51.972;4.624;2023-02-14T03:37:16;103377.00;;;7.66;71.97
62508;BME280;48556;51.972;4.624;2023-02-14T03:42:31;103380.75;;;7.52;71.83
62508;BME280;48556;51.972;4.624;2023-02-14T03:45:09;103375.41;;;7.49;71.66
62508;BME280;48556;51.972;4.624;2023-02-14T03:47:39;103378.34;;;7.57;70.81
62508;BME280;48556;51.972;4.624;2023-02-14T03:50:18;103379.88;;;7.51;70.74
62508;BME280;48556;51.972;4.624;2023-02-14T03:52:48;103382.72;;;7.36;70.59
62508;BME280;48556;51.972;4.624;2023-02-14T03:55:21;103376.50;;;7.33;70.23
62508;BME280;48556;51.972;4.624;2023-02-14T03:58:16;103390.09;;;7.24;70.67
62508;BME280;48556;51.972;4.624;2023-02-14T04:00:47;103381.38;;;7.46;69.96
62508;BME280;48556;51.972;4.624;2023-02-14T04:03:17;103381.13;;;7.19;70.54
62508;BME280;48556;51.972;4.624;2023-02-14T04:05:45;103378.84;;;7.27;70.52
62508;BME280;48556;51.972;4.624;2023-02-14T04:08:31;103383.41;;;7.11;70.90
62508;BME280;48556;51.972;4.624;2023-02-14T04:11:00;103379.31;;;6.97;70.95
62508;BME280;48556;51.972;4.624;2023-02-14T04:13:27;103373.28;;;7.19;69.98
62508;BME280;48556;51.972;4.624;2023-02-14T04:15:53;103371.50;;;7.18;70.42
62508;BME280;48556;51.972;4.624;2023-02-14T04:18:19;103377.81;;;7.02;70.68
62508;BME280;48556;51.972;4.624;2023-02-14T04:21:04;103373.00;;;7.13;70.34
62508;BME280;48556;51.972;4.624;2023-02-14T04:23:29;103377.00;;;7.05;70.61
62508;BME280;48556;51.972;4.624;2023-02-14T04:25:55;103374.41;;;7.05;70.57
62508;BME280;48556;51.972;4.624;2023-02-14T04:28:22;103378.06;;;7.08;70.90
62508;BME280;48556;51.972;4.624;2023-02-14T04:30:47;103382.25;;;7.05;70.84
62508;BME280;48556;51.972;4.624;2023-02-14T04:33:13;103371.09;;;7.09;70.98
62508;BME280;48556;51.972;4.624;2023-02-14T04:35:38;103375.88;;;6.98;71.85
62508;BME280;48556;51.972;4.624;2023-02-14T04:38:04;103376.31;;;7.09;71.80
62508;BME280;48556;51.972;4.624;2023-02-14T04:40:30;103388.16;;;7.20;71.76
62508;BME280;48556;51.972;4.624;2023-02-14T04:42:56;103383.94;;;7.24;72.05
62508;BME280;48556;51.972;4.624;2023-02-14T04:45:21;103375.00;;;7.18;72.13
62508;BME280;48556;51.972;4.624;2023-02-14T04:47:47;103376.91;;;7.23;72.04
62508;BME280;48556;51.972;4.624;2023-02-14T04:50:13;103374.22;;;7.21;72.07
62508;BME280;48556;51.972;4.624;2023-02-14T04:52:40;103373.59;;;7.27;71.91
62508;BME280;48556;51.972;4.624;2023-02-14T04:55:06;103371.44;;;7.16;72.14
62508;BME280;48556;51.972;4.624;2023-02-14T04:57:47;103376.22;;;6.86;73.23
62508;BME280;48556;51.972;4.624;2023-02-14T05:00:13;103371.88;;;7.06;72.50
62508;BME280;48556;51.972;4.624;2023-02-14T05:02:41;103365.56;;;7.22;71.76
62508;BME280;48556;51.972;4.624;2023-02-14T05:05:07;103374.94;;;7.17;71.76
62508;BME280;48556;51.972;4.624;2023-02-14T05:07:32;103373.69;;;7.09;71.77
62508;BME280;48556;51.972;4.624;2023-02-14T05:09:58;103376.66;;;7.16;71.55
62508;BME280;48556;51.972;4.624;2023-02-14T05:12:24;103362.13;;;7.23;71.54
62508;BME280;48556;51.972;4.624;2023-02-14T05:14:49;103371.31;;;7.13;71.32
62508;BME280;48556;51.972;4.624;2023-02-14T05:17:15;103374.88;;;7.15;71.18
62508;BME280;48556;51.972;4.624;2023-02-14T05:19:42;103372.53;;;7.22;71.41
62508;BME280;48556;51.972;4.624;2023-02-14T05:22:07;103375.28;;;7.25;71.28
62508;BME280;48556;51.972;4.624;2023-02-14T05:24:33;103368.31;;;7.25;71.12
62508;BME280;48556;51.972;4.624;2023-02-14T05:26:59;103383.44;;;7.32;70.93
62508;BME280;48556;51.972;4.624;2023-02-14T05:29:24;103384.47;;;7.36;70.75
62508;BME280;48556;51.972;4.624;2023-02-14T05:31:50;103377.00;;;7.24;70.92
62508;BME280;48556;51.972;4.624;2023-02-14T05:34:15;103370.28;;;7.31;70.59
62508;BME280;48556;51.972;4.624;2023-02-14T05:36:41;103376.03;;;7.22;70.50
62508;BME280;48556;51.972;4.624;2023-02-14T05:39:06;103372.03;;;7.30;70.49
62508;BME280;48556;51.972;4.624;2023-02-14T05:41:32;103377.06;;;7.26;70.07
62508;BME280;48556;51.972;4.624;2023-02-14T05:43:57;103375.22;;;7.23;70.10
62508;BME280;48556;51.972;4.624;2023-02-14T05:46:23;103372.31;;;7.17;70.48
62508;BME280;48556;51.972;4.624;2023-02-14T05:48:48;103369.16;;;7.24;70.41
62508;BME280;48556;51.972;4.624;2023-02-14T05:51:14;103366.53;;;7.24;69.97
62508;BME280;48556;51.972;4.624;2023-02-14T05:53:40;103370.31;;;7.11;69.56
62508;BME280;48556;51.972;4.624;2023-02-14T05:56:06;103370.56;;;7.16;69.63
62508;BME280;48556;51.972;4.624;2023-02-14T05:58:33;103363.00;;;7.24;68.51
62508;BME280;48556;51.972;4.624;2023-02-14T06:00:59;103363.00;;;7.03;68.99
62508;BME280;48556;51.972;4.624;2023-02-14T06:03:30;103368.22;;;7.03;69.00
62508;BME280;48556;51.972;4.624;2023-02-14T06:05:56;103367.81;;;6.93;68.90
62508;BME280;48556;51.972;4.624;2023-02-14T06:08:21;103368.84;;;6.97;68.86
62508;BME280;48556;51.972;4.624;2023-02-14T06:10:47;103364.72;;;7.02;68.21
62508;BME280;48556;51.972;4.624;2023-02-14T06:13:13;103378.72;;;6.83;68.52
62508;BME280;48556;51.972;4.624;2023-02-14T06:15:39;103372.03;;;6.90;68.74
62508;BME280;48556;51.972;4.624;2023-02-14T06:18:05;103363.22;;;6.88;68.57
62508;BME280;48556;51.972;4.624;2023-02-14T06:20:31;103361.56;;;6.90;68.75
62508;BME280;48556;51.972;4.624;2023-02-14T06:22:57;103363.69;;;6.98;68.88
62508;BME280;48556;51.972;4.624;2023-02-14T06:25:23;103359.84;;;6.90;68.90
62508;BME280;48556;51.972;4.624;2023-02-14T06:27:49;103376.28;;;6.88;68.97
62508;BME280;48556;51.972;4.624;2023-02-14T06:30:16;103372.09;;;6.72;69.49
62508;BME280;48556;51.972;4.624;2023-02-14T06:32:42;103363.59;;;6.56;70.25
62508;BME280;48556;51.972;4.624;2023-02-14T06:35:08;103365.91;;;6.50;70.93
62508;BME280;48556;51.972;4.624;2023-02-14T06:37:34;103355.03;;;6.41;70.98
62508;BME280;48556;51.972;4.624;2023-02-14T06:39:59;103364.25;;;6.52;70.61
62508;BME280;48556;51.972;4.624;2023-02-14T06:42:26;103368.47;;;6.11;73.08
62508;BME280;48556;51.972;4.624;2023-02-14T06:44:52;103366.44;;;6.43;71.98
62508;BME280;48556;51.972;4.624;2023-02-14T06:47:17;103368.19;;;6.42;72.05
62508;BME280;48556;51.972;4.624;2023-02-14T06:49:43;103372.78;;;6.48;71.99
62508;BME280;48556;51.972;4.624;2023-02-14T06:52:09;103369.97;;;6.43;71.66
62508;BME280;48556;51.972;4.624;2023-02-14T06:54:34;103369.75;;;6.58;71.37
62508;BME280;48556;51.972;4.624;2023-02-14T06:57:00;103373.81;;;6.71;70.03
62508;BME280;48556;51.972;4.624;2023-02-14T06:59:25;103378.28;;;6.54;70.26
62508;BME280;48556;51.972;4.624;2023-02-14T07:01:51;103379.41;;;6.59;70.51
62508;BME280;48556;51.972;4.624;2023-02-14T07:04:18;103381.81;;;6.55;70.30
62508;BME280;48556;51.972;4.624;2023-02-14T07:06:44;103382.00;;;6.59;70.20
62508;BME280;48556;51.972;4.624;2023-02-14T07:09:11;103377.47;;;6.55;70.35
62508;BME280;48556;51.972;4.624;2023-02-14T07:11:41;103373.91;;;6.53;70.09
62508;BME280;48556;51.972;4.624;2023-02-14T07:14:06;103382.97;;;6.61;70.02
62508;BME280;48556;51.972;4.624;2023-02-14T07:16:32;103370.09;;;6.46;70.30
62508;BME280;48556;51.972;4.624;2023-02-14T07:18:57;103373.22;;;6.57;69.81
62508;BME280;48556;51.972;4.624;2023-02-14T07:21:23;103368.13;;;6.60;69.82
62508;BME280;48556;51.972;4.624;2023-02-14T07:23:48;103374.97;;;6.58;70.00
62508;BME280;48556;51.972;4.624;2023-02-14T07:26:14;103380.28;;;6.60;69.76
62508;BME280;48556;51.972;4.624;2023-02-14T07:28:47;103375.06;;;6.60;69.56
62508;BME280;48556;51.972;4.624;2023-02-14T07:31:17;103380.09;;;6.55;70.00
62508;BME280;48556;51.972;4.624;2023-02-14T07:33:43;103384.63;;;6.79;68.46
62508;BME280;48556;51.972;4.624;2023-02-14T07:36:09;103383.13;;;6.64;69.21
62508;BME280;48556;51.972;4.624;2023-02-14T07:38:34;103386.13;;;6.54;69.66
62508;BME280;48556;51.972;4.624;2023-02-14T07:41:00;103384.69;;;6.61;69.66
62508;BME280;48556;51.972;4.624;2023-02-14T07:43:26;103395.72;;;6.73;69.37
62508;BME280;48556;51.972;4.624;2023-02-14T07:45:52;103386.97;;;6.73;69.30
62508;BME280;48556;51.972;4.624;2023-02-14T07:48:17;103392.47;;;6.59;70.29
62508;BME280;48556;51.972;4.624;2023-02-14T07:50:43;103392.72;;;6.85;69.63
62508;BME280;48556;51.972;4.624;2023-02-14T07:53:09;103391.91;;;6.86;69.63
62508;BME280;48556;51.972;4.624;2023-02-14T07:55:34;103386.06;;;6.92;69.30
62508;BME280;48556;51.972;4.624;2023-02-14T07:58:00;103395.34;;;6.85;69.64
62508;BME280;48556;51.972;4.624;2023-02-14T08:00:26;103383.38;;;6.90;69.41
62508;BME280;48556;51.972;4.624;2023-02-14T08:02:52;103384.13;;;6.88;69.29
62508;BME280;48556;51.972;4.624;2023-02-14T08:05:18;103388.19;;;7.00;69.21
62508;BME280;48556;51.972;4.624;2023-02-14T08:07:43;103381.56;;;7.09;69.42
62508;BME280;48556;51.972;4.624;2023-02-14T08:10:11;103378.81;;;7.06;69.81
62508;BME280;48556;51.972;4.624;2023-02-14T08:12:36;103381.00;;;7.16;69.89
62508;BME280;48556;51.972;4.624;2023-02-14T08:15:33;103377.06;;;7.26;69.68
62508;BME280;48556;51.972;4.624;2023-02-14T08:18:20;103373.66;;;7.28;70.41
62508;BME280;48556;51.972;4.624;2023-02-14T08:20:50;103377.44;;;7.35;70.32
62508;BME280;48556;51.972;4.624;2023-02-14T08:23:20;103375.78;;;7.37;70.61
62508;BME280;48556;51.972;4.624;2023-02-14T08:25:47;103387.25;;;7.41;70.28
62508;BME280;48556;51.972;4.624;2023-02-14T08:28:13;103379.16;;;7.34;70.37
62508;BME280;48556;51.972;4.624;2023-02-14T08:30:40;103377.31;;;7.32;70.55
62508;BME280;48556;51.972;4.624;2023-02-14T08:33:06;103375.03;;;7.40;71.15
62508;BME280;48556;51.972;4.624;2023-02-14T08:35:33;103377.31;;;7.53;70.89
62508;BME280;48556;51.972;4.624;2023-02-14T08:37:59;103373.63;;;7.69;71.24
62508;BME280;48556;51.972;4.624;2023-02-14T08:40:25;103377.75;;;7.64;72.40
62508;BME280;48556;51.972;4.624;2023-02-14T08:42:50;103381.88;;;7.80;72.59
62508;BME280;48556;51.972;4.624;2023-02-14T08:45:16;103380.63;;;7.91;73.28
62508;BME280;48556;51.972;4.624;2023-02-14T08:47:41;103380.03;;;7.98;73.37
62508;BME280;48556;51.972;4.624;2023-02-14T08:50:11;103373.19;;;7.81;75.11
62508;BME280;48556;51.972;4.624;2023-02-14T08:52:38;103377.88;;;8.11;74.39
62508;BME280;48556;51.972;4.624;2023-02-14T08:55:05;103369.16;;;8.12;74.56
62508;BME280;48556;51.972;4.624;2023-02-14T08:57:30;103378.22;;;8.20;74.37
62508;BME280;48556;51.972;4.624;2023-02-14T08:59:56;103366.19;;;8.25;74.40
62508;BME280;48556;51.972;4.624;2023-02-14T09:02:21;103367.28;;;8.30;74.32
62508;BME280;48556;51.972;4.624;2023-02-14T09:04:51;103371.44;;;8.48;73.70
62508;BME280;48556;51.972;4.624;2023-02-14T09:07:17;103368.19;;;8.55;74.08
62508;BME280;48556;51.972;4.624;2023-02-14T09:09:47;103367.47;;;8.59;73.57
62508;BME280;48556;51.972;4.624;2023-02-14T09:12:12;103361.03;;;8.74;73.34
62508;BME280;48556;51.972;4.624;2023-02-14T09:14:41;103358.22;;;8.93;73.32
62508;BME280;48556;51.972;4.624;2023-02-14T09:17:12;103362.56;;;8.93;73.20
62508;BME280;48556;51.972;4.624;2023-02-14T09:19:38;103353.66;;;8.87;74.10
62508;BME280;48556;51.972;4.624;2023-02-14T09:22:06;103357.44;;;8.71;75.06
62508;BME280;48556;51.972;4.624;2023-02-14T09:24:34;103348.66;;;8.95;75.74
62508;BME280;48556;51.972;4.624;2023-02-14T09:27:00;103353.41;;;8.81;76.11
62508;BME280;48556;51.972;4.624;2023-02-14T09:29:27;103357.00;;;8.83;77.15
62508;BME280;48556;51.972;4.624;2023-02-14T09:31:55;103362.25;;;8.83;77.30
62508;BME280;48556;51.972;4.624;2023-02-14T09:34:21;103362.78;;;8.50;78.19
62508;BME280;48556;51.972;4.624;2023-02-14T09:37:05;103364.78;;;8.82;78.33
62508;BME280;48556;51.972;4.624;2023-02-14T09:39:49;103365.03;;;8.88;78.28
62508;BME280;48556;51.972;4.624;2023-02-14T09:43:33;103364.72;;;9.30;77.13
62508;BME280;48556;51.972;4.624;2023-02-14T09:45:40;103366.97;;;9.19;77.28
62508;BME280;48556;51.972;4.624;2023-02-14T09:51:01;103360.94;;;9.48;77.54
62508;BME280;48556;51.972;4.624;2023-02-14T09:53:35;103356.31;;;9.68;76.74
62508;BME280;48556;51.972;4.624;2023-02-14T09:59:17;103356.75;;;9.82;77.03
62508;BME280;48556;51.972;4.624;2023-02-14T10:04:37;103359.13;;;10.01;75.62
62508;BME280;48556;51.972;4.624;2023-02-14T10:07:35;103347.94;;;10.08;75.72
62508;BME280;48556;51.972;4.624;2023-02-14T10:10:19;103363.13;;;10.17;75.95
62508;BME280;48556;51.972;4.624;2023-02-14T10:13:06;103365.00;;;10.52;75.72
62508;BME280;48556;51.972;4.624;2023-02-14T10:15:46;103364.53;;;10.35;76.14
62508;BME280;48556;51.972;4.624;2023-02-14T10:18:21;103362.19;;;10.44;75.84
62508;BME280;48556;51.972;4.624;2023-02-14T10:20:57;103354.06;;;10.36;75.56
62508;BME280;48556;51.972;4.624;2023-02-14T10:23:41;103354.84;;;10.64;74.46
62508;BME280;48556;51.972;4.624;2023-02-14T10:26:23;103362.66;;;10.32;74.02
62508;BME280;48556;51.972;4.624;2023-02-14T10:28:50;103355.81;;;10.08;74.63
62508;BME280;48556;51.972;4.624;2023-02-14T10:31:24;103351.59;;;10.14;73.56
62508;BME280;48556;51.972;4.624;2023-02-14T10:34:36;103356.88;;;10.42;73.21
62508;BME280;48556;51.972;4.624;2023-02-14T10:42:09;103357.00;;;10.47;71.83
62508;BME280;48556;51.972;4.624;2023-02-14T10:56:17;103335.94;;;11.48;68.32
62508;BME280;48556;51.972;4.624;2023-02-14T10:58:47;103340.06;;;11.01;69.27
62508;BME280;48556;51.972;4.624;2023-02-14T11:01:16;103331.47;;;11.43;68.34
62508;BME280;48556;51.972;4.624;2023-02-14T11:03:58;103334.41;;;11.94;67.05
62508;BME280;48556;51.972;4.624;2023-02-14T11:06:29;103326.56;;;11.97;67.09
62508;BME280;48556;51.972;4.624;2023-02-14T11:08:54;103331.34;;;12.15;66.16
62508;BME280;48556;51.972;4.624;2023-02-14T11:13:55;103324.50;;;12.23;65.39
62508;BME280;48556;51.972;4.624;2023-02-14T11:16:34;103318.25;;;12.18;65.56
62508;BME280;48556;51.972;4.624;2023-02-14T11:21:43;103313.41;;;12.41;65.98
62508;BME280;48556;51.972;4.624;2023-02-14T11:24:32;103307.06;;;12.31;65.22
62508;BME280;48556;51.972;4.624;2023-02-14T11:27:18;103301.31;;;12.53;65.15
62508;BME280;48556;51.972;4.624;2023-02-14T11:29:48;103299.91;;;12.70;65.21
62508;BME280;48556;51.972;4.624;2023-02-14T11:34:58;103297.66;;;12.46;65.02
62508;BME280;48556;51.972;4.624;2023-02-14T11:37:41;103297.09;;;12.61;64.60
62508;BME280;48556;51.972;4.624;2023-02-14T11:42:53;103284.91;;;12.69;64.80
62508;BME280;48556;51.972;4.624;2023-02-14T11:45:34;103284.22;;;12.79;64.27
62508;BME280;48556;51.972;4.624;2023-02-14T11:53:36;103269.97;;;13.22;62.78
62508;BME280;48556;51.972;4.624;2023-02-14T11:56:03;103261.41;;;13.37;62.20
62508;BME280;48556;51.972;4.624;2023-02-14T11:58:46;103260.88;;;13.58;61.81
62508;BME280;48556;51.972;4.624;2023-02-14T12:01:33;103254.34;;;14.00;60.42
62508;BME280;48556;51.972;4.624;2023-02-14T12:04:13;103245.28;;;13.81;60.71
62508;BME280;48556;51.972;4.624;2023-02-14T12:06:40;103241.78;;;13.22;62.54
62508;BME280;48556;51.972;4.624;2023-02-14T12:12:13;103241.22;;;13.40;61.18
62508;BME280;48556;51.972;4.624;2023-02-14T12:14:39;103240.19;;;13.96;59.68
62508;BME280;48556;51.972;4.624;2023-02-14T12:20:08;103251.22;;;13.63;60.47
62508;BME280;48556;51.972;4.624;2023-02-14T12:23:17;103236.84;;;14.11;58.86
62508;BME280;48556;51.972;4.624;2023-02-14T12:26:34;103238.84;;;14.31;58.42
62508;BME280;48556;51.972;4.624;2023-02-14T12:31:37;103229.28;;;14.47;56.99
62508;BME280;48556;51.972;4.624;2023-02-14T12:34:03;103236.88;;;14.13;57.60
62508;BME280;48556;51.972;4.624;2023-02-14T12:40:15;103219.81;;;14.67;57.11
62508;BME280;48556;51.972;4.624;2023-02-14T12:42:51;103217.56;;;15.18;55.76
62508;BME280;48556;51.972;4.624;2023-02-14T12:45:58;103211.56;;;15.50;55.20
62508;BME280;48556;51.972;4.624;2023-02-14T12:54:04;103198.41;;;19.09;46.69
62508;BME280;48556;51.972;4.624;2023-02-14T12:56:53;103193.44;;;21.72;40.06
62508;BME280;48556;51.972;4.624;2023-02-14T13:02:43;103190.06;;;25.59;31.29
62508;BME280;48556;51.972;4.624;2023-02-14T13:05:40;103175.53;;;27.16;28.14
62508;BME280;48556;51.972;4.624;2023-02-14T13:11:03;103177.56;;;29.12;25.19
62508;BME280;48556;51.972;4.624;2023-02-14T13:13:56;103174.25;;;29.73;23.65
62508;BME280;48556;51.972;4.624;2023-02-14T13:22:26;103160.13;;;31.76;20.50
62508;BME280;48556;51.972;4.624;2023-02-14T13:25:11;103158.06;;;33.26;19.37
62508;BME280;48556;51.972;4.624;2023-02-14T13:27:39;103151.94;;;33.09;18.96
62508;BME280;48556;51.972;4.624;2023-02-14T13:30:16;103152.47;;;33.77;18.75
62508;BME280;48556;51.972;4.624;2023-02-14T13:32:45;103150.19;;;34.19;18.46
62508;BME280;48556;51.972;4.624;2023-02-14T13:35:26;103145.66;;;34.89;17.25
62508;BME280;48556;51.972;4.624;2023-02-14T13:38:19;103144.19;;;34.14;17.40
62508;BME280;48556;51.972;4.624;2023-02-14T13:40:46;103144.91;;;34.87;17.04
62508;BME280;48556;51.972;4.624;2023-02-14T13:43:51;103146.53;;;35.79;16.33
62508;BME280;48556;51.972;4.624;2023-02-14T13:46:46;103137.66;;;34.28;16.84
62508;BME280;48556;51.972;4.624;2023-02-14T13:49:31;103137.72;;;34.04;17.37
62508;BME280;48556;51.972;4.624;2023-02-14T13:52:05;103129.94;;;34.69;16.58
62508;BME280;48556;51.972;4.624;2023-02-14T13:54:46;103131.47;;;34.84;16.77
62508;BME280;48556;51.972;4.624;2023-02-14T13:57:27;103132.47;;;35.06;16.33
62508;BME280;48556;51.972;4.624;2023-02-14T14:02:54;103135.28;;;33.88;16.98
62508;BME280;48556;51.972;4.624;2023-02-14T14:10:48;103136.06;;;31.28;19.66
62508;BME280;48556;51.972;4.624;2023-02-14T14:18:50;103131.81;;;30.50;20.28
62508;BME280;48556;51.972;4.624;2023-02-14T14:21:26;103126.91;;;31.00;19.60
62508;BME280;48556;51.972;4.624;2023-02-14T14:24:13;103121.94;;;31.50;19.25
62508;BME280;48556;51.972;4.624;2023-02-14T14:26:45;103120.44;;;32.28;18.73
62508;BME280;48556;51.972;4.624;2023-02-14T14:29:30;103118.28;;;32.06;18.90
62508;BME280;48556;51.972;4.624;2023-02-14T14:31:57;103115.50;;;31.65;18.80
62508;BME280;48556;51.972;4.624;2023-02-14T14:34:30;103113.34;;;30.85;19.35
62508;BME280;48556;51.972;4.624;2023-02-14T14:37:04;103114.19;;;29.96;19.81
62508;BME280;48556;51.972;4.624;2023-02-14T14:39:40;103109.00;;;30.38;20.00
62508;BME280;48556;51.972;4.624;2023-02-14T14:42:07;103112.09;;;29.86;20.06
62508;BME280;48556;51.972;4.624;2023-02-14T14:44:35;103111.38;;;29.66;20.77
62508;BME280;48556;51.972;4.624;2023-02-14T14:47:16;103100.88;;;28.61;21.84
62508;BME280;48556;51.972;4.624;2023-02-14T14:50:05;103100.38;;;28.00;22.46
62508;BME280;48556;51.972;4.624;2023-02-14T14:52:41;103098.25;;;27.13;23.35
62508;BME280;48556;51.972;4.624;2023-02-14T14:55:19;103093.28;;;25.99;24.93
62508;BME280;48556;51.972;4.624;2023-02-14T14:57:54;103101.59;;;25.25;26.32
62508;BME280;48556;51.972;4.624;2023-02-14T15:00:31;103099.78;;;24.77;27.10
62508;BME280;48556;51.972;4.624;2023-02-14T15:05:40;103099.72;;;22.80;30.26
62508;BME280;48556;51.972;4.624;2023-02-14T15:11:00;103092.53;;;21.33;33.01
62508;BME280;48556;51.972;4.624;2023-02-14T15:13:41;103091.53;;;20.95;33.79
62508;BME280;48556;51.972;4.624;2023-02-14T15:18:48;103089.31;;;20.19;35.55
62508;BME280;48556;51.972;4.624;2023-02-14T15:21:16;103087.81;;;19.37;37.01
62508;BME280;48556;51.972;4.624;2023-02-14T15:24:03;103083.97;;;19.61;37.04
62508;BME280;48556;51.972;4.624;2023-02-14T15:26:31;103092.88;;;18.85;38.73
62508;BME280;48556;51.972;4.624;2023-02-14T15:29:05;103081.13;;;19.06;38.45
62508;BME280;48556;51.972;4.624;2023-02-14T15:31:36;103090.34;;;18.70;39.24
62508;BME280;48556;51.972;4.624;2023-02-14T15:34:04;103093.03;;;18.70;38.79
62508;BME280;48556;51.972;4.624;2023-02-14T15:36:36;103088.91;;;18.39;39.42